Time;durP1;ratioP1;P1;durP2;ratioP2;P2;SDS_P1;SDS_P2;PMS_P1;PMS_P2;Temp;Humidity;BMP_temperature;BMP_pressure;BME280_temperature;BME280_humidity;BME280_pressure;Samples;Min_cycle;Max_cycle;Signal;HPM_P1;HPM_P2
2023/09/15 00:00:36;;;;;;;10.68;8.10;;;17.00;99.90;;;;;;4890013;29;20059;-69
2023/09/15 00:03:08;;;;;;;9.77;7.20;;;16.90;99.90;;;;;;4898311;29;20045;-68
2023/09/15 00:05:41;;;;;;;9.38;7.20;;;16.90;99.90;;;;;;4884214;29;20857;-68
2023/09/15 00:08:12;;;;;;;8.47;7.40;;;16.80;99.90;;;;;;4891615;29;20045;-68
2023/09/15 00:10:46;;;;;;;9.20;7.55;;;16.80;99.90;;;;;;4890683;29;20069;-68
2023/09/15 00:13:18;;;;;;;10.23;7.25;;;16.80;99.90;;;;;;4887453;29;20124;-69
2023/09/15 00:15:49;;;;;;;9.55;7.80;;;16.70;99.90;;;;;;4890758;29;20041;-69
2023/09/15 00:18:21;;;;;;;8.80;7.50;;;16.70;99.90;;;;;;4891071;29;20505;-69
2023/09/15 00:20:53;;;;;;;10.63;7.40;;;16.60;99.90;;;;;;4889536;29;20052;-69
2023/09/15 00:23:25;;;;;;;7.68;6.90;;;16.60;99.90;;;;;;4894752;29;20052;-69
2023/09/15 00:26:03;;;;;;;8.05;7.05;;;16.60;99.90;;;;;;4882735;29;20041;-68
2023/09/15 00:28:36;;;;;;;8.48;7.57;;;16.60;99.90;;;;;;4894837;29;20037;-69
2023/09/15 00:31:03;;;;;;;9.10;6.82;;;16.60;99.90;;;;;;4900715;29;20574;-68
2023/09/15 00:33:35;;;;;;;10.10;7.47;;;16.50;99.90;;;;;;4894911;29;20052;-69
2023/09/15 00:36:07;;;;;;;8.18;7.38;;;16.50;99.90;;;;;;4883692;29;20090;-69
2023/09/15 00:38:34;;;;;;;10.27;7.63;;;16.50;99.90;;;;;;4883005;29;20133;-69
2023/09/15 00:41:06;;;;;;;11.38;7.55;;;16.50;99.90;;;;;;4905271;29;20528;-68
2023/09/15 00:43:38;;;;;;;9.35;7.35;;;16.40;99.90;;;;;;4890858;29;20496;-68
2023/09/15 00:46:12;;;;;;;8.45;6.95;;;16.40;99.90;;;;;;4905168;29;20517;-68
2023/09/15 00:48:45;;;;;;;8.27;7.32;;;16.30;99.90;;;;;;4886264;29;20055;-68
2023/09/15 00:51:21;;;;;;;10.63;7.13;;;16.30;99.90;;;;;;4891305;29;20052;-68
2023/09/15 00:53:48;;;;;;;9.93;7.30;;;16.20;99.90;;;;;;4900605;29;20140;-68
2023/09/15 00:56:21;;;;;;;9.73;7.93;;;16.20;99.90;;;;;;4895423;29;20056;-68
2023/09/15 00:58:48;;;;;;;8.90;7.07;;;16.20;99.90;;;;;;4892266;29;20421;-68
2023/09/15 01:01:20;;;;;;;8.57;7.47;;;16.10;99.90;;;;;;4901197;29;20049;-68
2023/09/15 01:03:47;;;;;;;9.00;8.10;;;16.10;99.90;;;;;;4883951;29;20113;-68
2023/09/15 01:06:17;;;;;;;8.52;7.63;;;16.00;99.90;;;;;;4888953;29;20501;-68
2023/09/15 01:08:49;;;;;;;10.68;7.80;;;16.00;99.90;;;;;;4889755;29;20068;-68
2023/09/15 01:11:21;;;;;;;10.90;7.45;;;16.00;99.90;;;;;;4873048;29;20064;-68
2023/09/15 01:13:53;;;;;;;8.10;7.30;;;16.00;99.90;;;;;;4899201;29;20048;-68
2023/09/15 01:16:42;;;;;;;8.77;7.18;;;16.00;99.90;;;;;;4890018;29;20135;-68
2023/09/15 01:19:37;;;;;;;9.15;8.00;;;16.00;99.90;;;;;;4889755;29;20056;-69
2023/09/15 01:22:36;;;;;;;8.95;8.05;;;15.90;99.90;;;;;;4899294;29;20049;-67
2023/09/15 01:25:26;;;;;;;8.48;7.32;;;15.90;99.90;;;;;;4899997;29;20075;-68
2023/09/15 01:28:24;;;;;;;11.70;7.30;;;15.90;99.90;;;;;;4896509;29;20041;-68
2023/09/15 01:30:57;;;;;;;10.90;8.10;;;15.90;99.90;;;;;;4900016;29;20100;-68
2023/09/15 01:33:25;;;;;;;8.55;7.32;;;15.80;99.90;;;;;;4893598;29;20060;-68
2023/09/15 01:35:56;;;;;;;11.10;7.93;;;15.80;99.90;;;;;;4883447;29;20052;-68
2023/09/15 01:38:31;;;;;;;8.20;7.13;;;15.80;99.90;;;;;;4896947;29;20111;-69
2023/09/15 01:41:04;;;;;;;14.10;9.73;;;15.70;99.90;;;;;;4891588;29;20049;-68
2023/09/15 01:43:35;;;;;;;9.93;7.70;;;15.60;99.90;;;;;;4879737;29;20047;-68
2023/09/15 01:46:07;;;;;;;9.70;7.35;;;15.60;99.90;;;;;;4884044;29;20044;-68
2023/09/15 01:48:40;;;;;;;9.70;7.38;;;15.50;99.90;;;;;;4890834;29;20128;-68
2023/09/15 01:51:14;;;;;;;8.35;7.55;;;15.50;99.90;;;;;;4892850;29;20626;-68
2023/09/15 01:53:46;;;;;;;7.93;7.13;;;15.50;99.90;;;;;;4892974;29;20413;-68
2023/09/15 01:56:19;;;;;;;10.93;7.90;;;15.50;99.90;;;;;;4904913;29;20049;-68
2023/09/15 01:58:51;;;;;;;9.00;7.15;;;15.50;99.90;;;;;;4893838;29;20576;-68
2023/09/15 02:01:18;;;;;;;8.13;7.32;;;15.50;99.90;;;;;;4902037;29;20036;-68
2023/09/15 02:03:46;;;;;;;9.82;7.68;;;15.50;99.90;;;;;;4899821;29;20051;-68
2023/09/15 02:06:16;;;;;;;9.32;7.53;;;15.40;99.90;;;;;;4897828;29;20052;-68
2023/09/15 02:08:48;;;;;;;8.43;7.25;;;15.40;99.90;;;;;;4890217;29;20055;-68
2023/09/15 02:11:20;;;;;;;10.15;8.68;;;15.30;99.90;;;;;;4887327;29;20071;-68
2023/09/15 02:13:52;;;;;;;10.00;7.60;;;15.30;99.90;;;;;;4905806;29;20532;-68
2023/09/15 02:16:19;;;;;;;8.48;7.13;;;15.30;99.90;;;;;;4908492;29;20049;-68
2023/09/15 02:18:51;;;;;;;8.43;7.60;;;15.30;99.90;;;;;;4875134;29;20625;-68
2023/09/15 02:21:25;;;;;;;9.10;7.25;;;15.20;99.90;;;;;;4890610;29;20041;-68
2023/09/15 02:23:57;;;;;;;9.43;6.95;;;15.20;99.90;;;;;;4875989;29;20517;-68
2023/09/15 02:26:24;;;;;;;8.50;7.13;;;15.10;99.90;;;;;;4903196;29;20052;-68
2023/09/15 02:28:51;;;;;;;8.00;6.88;;;15.10;99.90;;;;;;4904913;29;20060;-68
2023/09/15 02:31:23;;;;;;;9.02;6.72;;;15.00;99.90;;;;;;4890141;29;20049;-68
2023/09/15 02:33:50;;;;;;;8.75;7.30;;;15.00;99.90;;;;;;4888812;29;20421;-69
2023/09/15 02:36:22;;;;;;;8.15;6.75;;;15.00;99.90;;;;;;4901405;29;20048;-68
2023/09/15 02:38:54;;;;;;;10.38;7.75;;;15.00;99.90;;;;;;4901565;29;20117;-68
2023/09/15 02:41:26;;;;;;;10.20;6.82;;;15.00;99.90;;;;;;4895998;29;20040;-68
2023/09/15 02:43:54;;;;;;;8.95;6.97;;;14.90;99.90;;;;;;4888706;29;20639;-68
2023/09/15 02:46:27;;;;;;;8.48;7.57;;;14.90;99.90;;;;;;4901282;29;20055;-68
2023/09/15 02:49:00;;;;;;;10.75;7.78;;;14.90;99.90;;;;;;4891603;29;20056;-68
2023/09/15 02:51:26;;;;;;;8.57;7.60;;;14.90;99.90;;;;;;4905651;29;20045;-69
2023/09/15 02:53:53;;;;;;;9.18;7.53;;;14.90;99.90;;;;;;4859037;29;20104;-68
2023/09/15 02:56:25;;;;;;;8.85;7.72;;;14.90;99.90;;;;;;4890500;29;20040;-68
2023/09/15 02:58:57;;;;;;;10.52;7.20;;;14.90;99.90;;;;;;4892945;29;20051;-68
2023/09/15 03:01:29;;;;;;;9.98;8.20;;;14.80;99.90;;;;;;4900477;29;20041;-68
2023/09/15 03:04:03;;;;;;;10.07;7.68;;;14.90;99.90;;;;;;4891630;29;20048;-68
2023/09/15 03:06:35;;;;;;;8.40;7.45;;;14.80;99.90;;;;;;4905347;29;20037;-68
2023/09/15 03:09:07;;;;;;;8.88;7.35;;;14.80;99.90;;;;;;4897016;29;20426;-68
2023/09/15 03:11:34;;;;;;;9.98;7.78;;;14.80;99.90;;;;;;4896935;29;20041;-69
2023/09/15 03:14:09;;;;;;;9.48;7.65;;;14.80;99.90;;;;;;4903897;29;20152;-69
2023/09/15 03:16:44;;;;;;;8.73;7.20;;;14.80;99.90;;;;;;4895022;29;20044;-69
2023/09/15 03:19:15;;;;;;;8.73;7.78;;;14.80;99.90;;;;;;4889440;29;20519;-68
2023/09/15 03:21:48;;;;;;;9.05;7.65;;;14.70;99.90;;;;;;4906722;29;20073;-68
2023/09/15 03:24:20;;;;;;;10.05;7.57;;;14.70;99.90;;;;;;4887460;29;20135;-68
2023/09/15 03:26:52;;;;;;;9.23;7.28;;;14.70;99.90;;;;;;4908793;29;20037;-73
2023/09/15 03:29:24;;;;;;;9.38;7.57;;;14.60;99.90;;;;;;4905910;29;20597;-68
2023/09/15 03:31:57;;;;;;;9.85;6.45;;;14.60;99.90;;;;;;4890623;29;20064;-68
2023/09/15 03:34:30;;;;;;;9.37;7.13;;;14.60;99.90;;;;;;4872161;29;20143;-68
2023/09/15 03:37:02;;;;;;;10.95;7.00;;;14.90;99.90;;;;;;4888104;29;20052;-68
2023/09/15 03:39:34;;;;;;;8.25;6.88;;;15.00;99.90;;;;;;4898094;29;20049;-69
2023/09/15 03:42:06;;;;;;;10.52;6.85;;;14.90;99.90;;;;;;4891368;29;20128;-68
2023/09/15 03:44:33;;;;;;;10.93;7.30;;;14.80;99.90;;;;;;4886073;29;20037;-68
2023/09/15 03:47:05;;;;;;;9.88;7.32;;;14.80;99.90;;;;;;4904675;29;20067;-69
2023/09/15 03:49:37;;;;;;;8.95;7.20;;;14.70;99.90;;;;;;4907512;29;20045;-68
2023/09/15 03:52:09;;;;;;;9.63;7.13;;;14.60;99.90;;;;;;4887181;29;20073;-68
2023/09/15 03:54:41;;;;;;;9.60;6.80;;;14.60;99.90;;;;;;4891158;29;20055;-68
2023/09/15 03:57:13;;;;;;;9.48;7.57;;;14.50;99.90;;;;;;4887647;29;20049;-68
2023/09/15 03:59:44;;;;;;;11.52;7.70;;;14.50;99.90;;;;;;4900338;29;20131;-68
2023/09/15 04:02:16;;;;;;;11.05;7.45;;;14.40;99.90;;;;;;4878355;29;20037;-68
2023/09/15 04:04:49;;;;;;;11.27;7.00;;;14.40;99.90;;;;;;4875897;29;20395;-68
2023/09/15 04:07:22;;;;;;;9.95;7.10;;;14.30;99.90;;;;;;4887666;29;20052;-68
2023/09/15 04:09:56;;;;;;;10.70;7.03;;;14.30;99.90;;;;;;4865824;29;20422;-68
2023/09/15 04:12:30;;;;;;;9.27;7.60;;;14.30;99.90;;;;;;4890371;29;20055;-68
2023/09/15 04:15:06;;;;;;;10.50;8.00;;;14.30;99.90;;;;;;4894121;29;20059;-67
2023/09/15 04:17:38;;;;;;;10.75;7.00;;;14.20;99.90;;;;;;4897288;29;20044;-67
2023/09/15 04:20:10;;;;;;;12.38;8.23;;;14.30;99.90;;;;;;4903655;29;20049;-67
2023/09/15 04:22:38;;;;;;;9.07;7.00;;;14.30;99.90;;;;;;4874229;29;20687;-68
2023/09/15 04:25:13;;;;;;;11.85;7.93;;;14.20;99.90;;;;;;4896244;29;20390;-68
2023/09/15 04:27:45;;;;;;;9.70;7.38;;;14.20;99.90;;;;;;4894838;29;20072;-68
2023/09/15 04:30:17;;;;;;;11.90;7.63;;;14.10;99.90;;;;;;4903798;29;20747;-68
2023/09/15 04:32:53;;;;;;;11.00;7.82;;;14.10;99.90;;;;;;4903112;29;20079;-68
2023/09/15 04:35:27;;;;;;;11.55;8.07;;;14.00;99.90;;;;;;4890094;29;20055;-68
2023/09/15 04:37:59;;;;;;;10.00;7.80;;;14.00;99.90;;;;;;4895921;29;20609;-69
2023/09/15 04:40:31;;;;;;;11.07;9.15;;;14.00;99.90;;;;;;4895891;29;20037;-68
2023/09/15 04:42:59;;;;;;;11.02;9.38;;;14.00;99.90;;;;;;4904746;29;20110;-68
2023/09/15 04:45:27;;;;;;;11.05;8.75;;;14.00;99.90;;;;;;4889045;29;20073;-67
2023/09/15 04:48:01;;;;;;;10.90;8.98;;;14.10;99.90;;;;;;4882218;29;20056;-68
2023/09/15 04:50:36;;;;;;;10.80;9.05;;;14.10;99.90;;;;;;4891348;29;20105;-68
2023/09/15 04:53:08;;;;;;;13.10;9.38;;;14.10;99.90;;;;;;4884939;29;20061;-68
2023/09/15 04:55:37;;;;;;;13.07;9.90;;;14.10;99.90;;;;;;4903399;29;20051;-68
2023/09/15 04:58:06;;;;;;;12.60;9.70;;;14.10;99.90;;;;;;4903143;29;20508;-68
2023/09/15 05:00:40;;;;;;;12.18;9.55;;;14.10;99.90;;;;;;4891562;29;20048;-68
2023/09/15 05:03:13;;;;;;;13.95;9.27;;;14.10;99.90;;;;;;4887276;29;20531;-67
2023/09/15 05:05:49;;;;;;;16.45;10.60;;;14.10;99.90;;;;;;4874685;29;20497;-67
2023/09/15 05:08:16;;;;;;;16.30;10.13;;;14.10;99.90;;;;;;4896130;29;20045;-68
2023/09/15 05:10:48;;;;;;;15.75;11.23;;;14.10;99.90;;;;;;4887693;29;20045;-68
2023/09/15 05:13:15;;;;;;;18.25;11.32;;;14.10;99.90;;;;;;4887488;29;20135;-68
2023/09/15 05:15:47;;;;;;;43.40;38.70;;;14.10;99.90;;;;;;4895174;29;20137;-68
2023/09/15 05:18:19;;;;;;;21.20;18.90;;;14.20;99.90;;;;;;4892809;29;20048;-68
2023/09/15 05:20:51;;;;;;;16.85;13.02;;;14.20;99.90;;;;;;4893243;29;20517;-68
2023/09/15 05:23:23;;;;;;;15.02;11.15;;;14.20;99.90;;;;;;4907976;29;20127;-68
2023/09/15 05:25:55;;;;;;;20.73;11.75;;;14.20;99.90;;;;;;4875868;29;20049;-68
2023/09/15 05:28:27;;;;;;;17.40;11.98;;;14.20;99.90;;;;;;4901619;29;20117;-68
2023/09/15 05:31:00;;;;;;;22.70;11.85;;;14.20;99.90;;;;;;4895280;29;20831;-68
2023/09/15 05:33:32;;;;;;;26.90;12.17;;;14.20;99.90;;;;;;4891202;29;20048;-68
2023/09/15 05:36:04;;;;;;;15.32;11.65;;;14.20;99.90;;;;;;4901929;29;20060;-68
2023/09/15 05:38:36;;;;;;;19.27;11.77;;;14.20;99.90;;;;;;4890081;29;20552;-68
2023/09/15 05:41:09;;;;;;;19.03;11.03;;;14.20;99.90;;;;;;4869053;29;20041;-68
2023/09/15 05:43:41;;;;;;;15.55;11.18;;;14.20;99.90;;;;;;4879270;29;20585;-68
2023/09/15 05:46:12;;;;;;;18.90;11.40;;;14.20;99.90;;;;;;4889384;29;20052;-67
2023/09/15 05:48:39;;;;;;;16.27;12.23;;;14.20;99.90;;;;;;4892186;29;20032;-68
2023/09/15 05:51:06;;;;;;;17.75;10.90;;;14.20;99.90;;;;;;4888821;29;20102;-68
2023/09/15 05:53:34;;;;;;;15.93;11.55;;;14.20;99.90;;;;;;4883503;29;20052;-68
2023/09/15 05:56:05;;;;;;;15.65;11.20;;;14.30;99.90;;;;;;4884951;29;20657;-68
2023/09/15 05:58:37;;;;;;;15.75;12.05;;;14.30;99.90;;;;;;4888254;29;20049;-68
2023/09/15 06:01:09;;;;;;;13.13;10.73;;;14.30;99.90;;;;;;4887935;29;20065;-68
2023/09/15 06:03:36;;;;;;;14.98;11.63;;;14.40;99.90;;;;;;4892222;29;20044;-68
2023/09/15 06:06:08;;;;;;;15.48;11.77;;;14.40;99.90;;;;;;4886226;29;20422;-68
2023/09/15 06:08:36;;;;;;;16.00;11.60;;;14.50;99.90;;;;;;4883104;29;20132;-68
2023/09/15 06:11:08;;;;;;;16.17;12.18;;;14.50;99.90;;;;;;4888694;29;20489;-68
2023/09/15 06:13:41;;;;;;;15.70;11.48;;;14.50;99.90;;;;;;4872469;29;20048;-68
2023/09/15 06:16:13;;;;;;;15.10;12.02;;;14.60;99.90;;;;;;4882425;29;20049;-68
2023/09/15 06:18:40;;;;;;;21.80;12.15;;;14.70;99.90;;;;;;4883734;29;20127;-68
2023/09/15 06:21:07;;;;;;;18.30;13.35;;;14.60;99.90;;;;;;4893933;29;20072;-68
2023/09/15 06:23:39;;;;;;;17.98;12.65;;;14.70;99.90;;;;;;4900750;29;20052;-67
2023/09/15 06:26:07;;;;;;;16.48;12.77;;;14.70;99.90;;;;;;4889148;29;20044;-68
2023/09/15 06:28:33;;;;;;;18.70;14.50;;;14.70;99.90;;;;;;4885920;29;20140;-68
2023/09/15 06:31:05;;;;;;;20.50;14.77;;;14.70;99.90;;;;;;4888302;29;20041;-68
2023/09/15 06:33:37;;;;;;;21.83;15.15;;;14.70;99.90;;;;;;4891622;29;20050;-67
2023/09/15 06:36:09;;;;;;;22.90;14.60;;;14.70;99.90;;;;;;4876180;29;20040;-68
2023/09/15 06:38:41;;;;;;;24.20;15.77;;;14.70;99.90;;;;;;4905055;29;20513;-68
2023/09/15 06:41:13;;;;;;;19.77;15.35;;;14.80;99.90;;;;;;4889463;29;20051;-68
2023/09/15 06:43:45;;;;;;;20.75;15.52;;;14.90;99.90;;;;;;4883367;29;20037;-68
2023/09/15 06:46:20;;;;;;;23.17;16.00;;;14.90;99.90;;;;;;4905538;29;20572;-68
2023/09/15 06:48:51;;;;;;;22.70;16.50;;;14.90;99.90;;;;;;4894296;29;20045;-68
2023/09/15 06:51:23;;;;;;;22.98;15.73;;;15.00;99.90;;;;;;4886792;29;20049;-68
2023/09/15 06:53:55;;;;;;;27.48;16.88;;;15.10;99.90;;;;;;4893238;29;20175;-68
2023/09/15 06:56:30;;;;;;;21.58;15.35;;;15.10;99.90;;;;;;4894142;29;20052;-68
2023/09/15 06:58:56;;;;;;;21.65;15.95;;;15.10;99.90;;;;;;4878990;29;20051;-68
2023/09/15 07:01:28;;;;;;;22.10;16.10;;;15.20;99.90;;;;;;4893107;29;20120;-68
2023/09/15 07:04:00;;;;;;;24.05;16.92;;;15.20;99.90;;;;;;4894489;29;20043;-68
2023/09/15 07:06:32;;;;;;;29.45;18.40;;;15.20;99.90;;;;;;4887808;29;20037;-68
2023/09/15 07:08:59;;;;;;;24.27;18.08;;;15.30;99.90;;;;;;4897114;29;20120;-68
2023/09/15 07:11:31;;;;;;;28.77;17.40;;;15.30;99.90;;;;;;4892180;29;20131;-68
2023/09/15 07:14:03;;;;;;;25.17;17.85;;;15.30;99.90;;;;;;4893513;29;20504;-68
2023/09/15 07:16:35;;;;;;;22.83;17.55;;;15.30;99.90;;;;;;4884795;29;20136;-68
2023/09/15 07:19:02;;;;;;;20.02;15.68;;;15.40;99.90;;;;;;4891127;29;20094;-68
2023/09/15 07:21:36;;;;;;;19.27;15.05;;;15.40;99.90;;;;;;4891283;29;20044;-68
2023/09/15 07:24:05;;;;;;;25.98;16.75;;;15.40;99.90;;;;;;4891447;29;20075;-68
2023/09/15 07:26:31;;;;;;;23.60;16.90;;;15.40;99.90;;;;;;4893392;29;20140;-68
2023/09/15 07:29:03;;;;;;;25.08;16.27;;;15.40;99.90;;;;;;4893902;29;20040;-68
2023/09/15 07:31:37;;;;;;;25.30;17.55;;;15.50;99.90;;;;;;4892095;29;20537;-66
2023/09/15 07:34:09;;;;;;;21.75;15.70;;;15.50;99.90;;;;;;4904584;29;20123;-67
2023/09/15 07:36:36;;;;;;;25.13;16.73;;;15.60;99.90;;;;;;4884580;29;20127;-67
2023/09/15 07:39:08;;;;;;;22.90;15.93;;;15.60;99.90;;;;;;4905261;29;20059;-67
2023/09/15 07:41:40;;;;;;;21.02;15.65;;;15.60;99.90;;;;;;4880212;29;20589;-67
2023/09/15 07:44:13;;;;;;;22.63;16.35;;;15.70;99.90;;;;;;4906895;29;20417;-67
2023/09/15 07:46:45;;;;;;;20.73;15.18;;;15.70;99.90;;;;;;4890433;29;20047;-67
2023/09/15 07:49:12;;;;;;;21.05;16.08;;;15.70;99.90;;;;;;4885465;29;20132;-67
2023/09/15 07:51:38;;;;;;;18.27;14.18;;;15.80;99.90;;;;;;4899358;29;20037;-67
2023/09/15 07:54:05;;;;;;;21.80;15.35;;;15.80;99.90;;;;;;4893233;29;20054;-67
2023/09/15 07:56:32;;;;;;;19.15;14.40;;;15.90;99.90;;;;;;4885574;29;20592;-67
2023/09/15 07:59:06;;;;;;;21.08;16.30;;;15.90;99.90;;;;;;4893848;29;20040;-67
2023/09/15 08:01:34;;;;;;;22.17;17.30;;;16.00;99.90;;;;;;4907942;29;20044;-68
2023/09/15 08:04:06;;;;;;;22.08;16.23;;;16.00;99.90;;;;;;4899191;29;20589;-67
2023/09/15 08:06:38;;;;;;;22.13;15.30;;;16.00;99.90;;;;;;4890839;29;20120;-67
2023/09/15 08:09:10;;;;;;;22.38;15.82;;;16.10;99.90;;;;;;4896343;29;20036;-67
2023/09/15 08:11:42;;;;;;;19.77;14.80;;;16.10;99.90;;;;;;4893994;29;20232;-67
2023/09/15 08:14:10;;;;;;;23.23;16.27;;;16.20;99.90;;;;;;4870833;29;20135;-67
2023/09/15 08:16:42;;;;;;;20.70;14.88;;;16.20;99.90;;;;;;4880464;29;20084;-67
2023/09/15 08:19:14;;;;;;;25.88;16.95;;;16.20;99.90;;;;;;4874979;29;20044;-67
2023/09/15 08:21:46;;;;;;;23.05;17.48;;;16.30;99.90;;;;;;4889042;29;20057;-67
2023/09/15 08:24:20;;;;;;;24.58;17.05;;;16.30;99.90;;;;;;4885343;29;20036;-67
2023/09/15 08:26:51;;;;;;;23.95;17.30;;;16.30;99.90;;;;;;4886684;29;20124;-67
2023/09/15 08:29:18;;;;;;;24.10;17.33;;;16.30;99.90;;;;;;4895857;29;20131;-67
2023/09/15 08:31:50;;;;;;;23.55;16.83;;;16.30;99.90;;;;;;4889840;29;20513;-67
2023/09/15 08:34:17;;;;;;;24.17;17.27;;;16.40;99.90;;;;;;4903534;29;20045;-69
2023/09/15 08:36:49;;;;;;;25.48;16.77;;;16.50;99.90;;;;;;4887753;29;20052;-67
2023/09/15 08:39:15;;;;;;;23.65;17.08;;;16.60;99.90;;;;;;4886845;29;20063;-67
2023/09/15 08:41:53;;;;;;;24.65;16.90;;;16.60;99.90;;;;;;4888353;29;20632;-67
2023/09/15 08:44:21;;;;;;;30.67;18.58;;;16.60;99.90;;;;;;4889311;29;20043;-67
2023/09/15 08:46:56;;;;;;;23.20;16.23;;;16.60;99.90;;;;;;4891147;29;20063;-67
2023/09/15 08:49:24;;;;;;;26.63;17.77;;;16.70;99.90;;;;;;4886160;29;20042;-67
2023/09/15 08:51:53;;;;;;;25.65;18.08;;;16.80;99.90;;;;;;4880588;29;20051;-67
2023/09/15 08:54:25;;;;;;;26.85;17.92;;;16.80;99.90;;;;;;4894395;29;20056;-67
2023/09/15 08:56:53;;;;;;;27.48;17.48;;;16.90;99.90;;;;;;4890041;29;20055;-67
2023/09/15 08:59:25;;;;;;;24.10;17.17;;;17.00;99.90;;;;;;4896870;29;20069;-67
2023/09/15 09:01:57;;;;;;;27.52;18.85;;;17.00;99.90;;;;;;4875831;29;20049;-67
2023/09/15 09:04:29;;;;;;;26.88;18.58;;;17.10;99.90;;;;;;4889605;29;20047;-67
2023/09/15 09:06:58;;;;;;;23.63;17.38;;;17.10;99.90;;;;;;4893802;29;20502;-67
2023/09/15 09:09:31;;;;;;;26.00;17.65;;;17.20;99.90;;;;;;4902528;29;20045;-67
2023/09/15 09:12:03;;;;;;;31.55;17.60;;;17.30;99.90;;;;;;4886420;29;20049;-67
2023/09/15 09:14:36;;;;;;;24.13;17.13;;;17.30;99.90;;;;;;4885014;29;20048;-67
2023/09/15 09:17:08;;;;;;;22.45;16.98;;;17.30;99.90;;;;;;4891306;29;20044;-67
2023/09/15 09:19:42;;;;;;;23.23;16.70;;;17.40;99.90;;;;;;4887540;29;20133;-67
2023/09/15 09:22:19;;;;;;;24.23;17.08;;;17.50;99.90;;;;;;4897488;29;20036;-67
2023/09/15 09:25:04;;;;;;;22.65;16.20;;;17.60;99.90;;;;;;4896327;29;20049;-67
2023/09/15 09:27:36;;;;;;;27.25;16.20;;;17.70;99.90;;;;;;4903678;29;20051;-67
2023/09/15 09:30:09;;;;;;;23.15;16.45;;;17.80;99.90;;;;;;4878591;29;20524;-67
2023/09/15 09:32:41;;;;;;;20.83;15.90;;;17.90;99.90;;;;;;4887435;29;20096;-68
2023/09/15 09:35:13;;;;;;;20.33;15.70;;;18.00;99.90;;;;;;4891639;29;20051;-67
2023/09/15 09:37:41;;;;;;;21.55;16.85;;;18.10;99.90;;;;;;4899962;29;20051;-67
2023/09/15 09:40:13;;;;;;;22.25;17.38;;;18.20;99.90;;;;;;4892323;29;20071;-67
2023/09/15 09:42:42;;;;;;;21.60;15.90;;;18.20;99.90;;;;;;4897930;29;20033;-67
2023/09/15 09:45:14;;;;;;;21.15;16.02;;;18.20;99.90;;;;;;4901451;29;20079;-67
2023/09/15 09:47:48;;;;;;;20.47;15.87;;;18.30;99.90;;;;;;4885847;29;20041;-68
2023/09/15 09:50:21;;;;;;;19.65;15.55;;;18.30;99.90;;;;;;4885703;29;20045;-67
2023/09/15 09:52:53;;;;;;;18.73;14.57;;;18.40;99.90;;;;;;4891145;29;20045;-68
2023/09/15 09:55:25;;;;;;;18.50;14.20;;;18.60;99.90;;;;;;4894496;29;20041;-67
2023/09/15 09:58:04;;;;;;;18.95;15.30;;;18.70;99.90;;;;;;4896044;29;20049;-67
2023/09/15 10:00:37;;;;;;;19.52;14.88;;;18.60;99.90;;;;;;4893554;29;20124;-67
2023/09/15 10:03:08;;;;;;;19.00;15.15;;;18.70;99.90;;;;;;4892090;29;20049;-67
2023/09/15 10:05:41;;;;;;;21.58;15.55;;;18.80;99.90;;;;;;4875720;29;20068;-67
2023/09/15 10:08:14;;;;;;;16.92;13.55;;;18.90;99.90;;;;;;4892628;29;20044;-67
2023/09/15 10:10:45;;;;;;;18.42;14.10;;;18.90;99.90;;;;;;4903392;29;20049;-67
2023/09/15 10:13:18;;;;;;;18.67;14.00;;;19.20;99.90;;;;;;4891230;29;20053;-67
2023/09/15 10:15:52;;;;;;;16.38;13.32;;;19.40;99.90;;;;;;4897957;29;20136;-67
2023/09/15 10:18:25;;;;;;;16.63;13.93;;;19.60;99.90;;;;;;4894961;29;20042;-66
2023/09/15 10:20:55;;;;;;;17.20;14.65;;;19.80;99.90;;;;;;4891049;29;20541;-67
2023/09/15 10:23:30;;;;;;;18.92;15.23;;;20.00;99.90;;;;;;4887112;29;20040;-67
2023/09/15 10:25:57;;;;;;;19.23;15.43;;;19.80;99.90;;;;;;4891720;29;20517;-67
2023/09/15 10:28:29;;;;;;;16.63;13.50;;;19.80;99.90;;;;;;4892016;29;20049;-67
2023/09/15 10:31:01;;;;;;;18.58;14.77;;;19.70;99.90;;;;;;4891167;29;20156;-67
2023/09/15 10:33:33;;;;;;;15.73;12.57;;;19.90;99.90;;;;;;4892486;29;20044;-68
2023/09/15 10:36:05;;;;;;;19.60;13.57;;;20.10;99.90;;;;;;4891376;29;20063;-67
2023/09/15 10:38:37;;;;;;;16.55;13.43;;;20.30;99.90;;;;;;4891974;29;20167;-67
2023/09/15 10:41:10;;;;;;;14.43;12.63;;;20.50;99.90;;;;;;4895610;29;20045;-67
2023/09/15 10:43:51;;;;;;;;;;;20.40;99.90;;;;;;4880985;29;20577;-67
2023/09/15 10:46:18;;;;;;;18.90;14.18;;;20.50;99.90;;;;;;4899650;29;19931;-68
2023/09/15 10:48:51;;;;;;;17.30;13.88;;;20.40;99.90;;;;;;4890468;29;20058;-68
2023/09/15 10:51:19;;;;;;;16.80;13.75;;;20.50;99.90;;;;;;4895990;29;20178;-68
2023/09/15 10:53:59;;;;;;;20.92;14.38;;;20.70;99.90;;;;;;4888689;29;20064;-67
2023/09/15 10:56:32;;;;;;;18.73;13.98;;;20.90;99.90;;;;;;4874819;29;20044;-67
2023/09/15 10:59:00;;;;;;;14.57;13.00;;;21.00;99.90;;;;;;4888456;29;20565;-68
2023/09/15 11:01:32;;;;;;;16.63;12.57;;;21.10;99.90;;;;;;4894935;29;20557;-68
2023/09/15 11:04:04;;;;;;;15.50;12.75;;;21.10;99.90;;;;;;4895190;29;20413;-68
2023/09/15 11:06:32;;;;;;;15.02;12.80;;;21.30;99.90;;;;;;4891908;29;20081;-68
2023/09/15 11:09:05;;;;;;;16.65;11.50;;;21.20;99.90;;;;;;4892325;29;20049;-68
2023/09/15 11:11:37;;;;;;;14.63;12.52;;;21.30;99.90;;;;;;4886939;29;20068;-68
2023/09/15 11:14:22;;;;;;;14.05;11.60;;;21.40;99.90;;;;;;4895592;29;20104;-68
2023/09/15 11:16:50;;;;;;;14.80;12.20;;;21.50;99.90;;;;;;4889038;29;20064;-68
2023/09/15 11:19:22;;;;;;;15.45;12.25;;;21.50;99.90;;;;;;4892023;29;20047;-68
2023/09/15 11:21:49;;;;;;;12.32;11.05;;;21.60;99.90;;;;;;4886773;29;20053;-67
2023/09/15 11:24:22;;;;;;;12.95;11.18;;;21.70;99.90;;;;;;4893803;29;20047;-68
2023/09/15 11:26:54;;;;;;;11.18;9.38;;;21.90;99.90;;;;;;4878005;29;20533;-68
2023/09/15 11:29:31;;;;;;;12.00;10.32;;;22.10;99.90;;;;;;4898407;29;20505;-68
2023/09/15 11:32:04;;;;;;;12.68;11.02;;;22.30;99.90;;;;;;4897115;29;20041;-68
2023/09/15 11:34:36;;;;;;;11.38;10.18;;;22.40;99.90;;;;;;4896121;29;20056;-68
2023/09/15 11:37:08;;;;;;;11.95;9.95;;;22.40;99.90;;;;;;4895857;29;20052;-67
2023/09/15 11:39:49;;;;;;;12.18;10.77;;;22.40;99.90;;;;;;4897416;29;20509;-68
2023/09/15 11:42:22;;;;;;;13.05;10.38;;;22.20;99.90;;;;;;4897885;29;20044;-69
2023/09/15 11:44:55;;;;;;;12.77;10.40;;;22.10;99.90;;;;;;4903663;29;20051;-68
2023/09/15 11:47:31;;;;;;;;;;;22.00;99.90;;;;;;4887671;29;20517;-68
2023/09/15 11:50:03;;;;;;;11.60;9.50;;;22.10;99.90;;;;;;4890974;29;19928;-68
2023/09/15 11:52:30;;;;;;;12.23;9.13;;;22.30;99.90;;;;;;4894906;29;20131;-67
2023/09/15 11:55:03;;;;;;;11.23;9.35;;;22.30;99.90;;;;;;4887225;29;20060;-68
2023/09/15 11:57:30;;;;;;;9.85;8.82;;;22.50;99.90;;;;;;4869506;29;20230;-68
2023/09/15 12:00:04;;;;;;;10.30;8.88;;;22.60;99.90;;;;;;4892805;29;20052;-68
2023/09/15 12:02:38;;;;;;;10.18;9.07;;;22.80;99.90;;;;;;4894562;29;20085;-68
2023/09/15 12:05:10;;;;;;;13.52;10.55;;;22.90;99.90;;;;;;4902078;29;20063;-68
2023/09/15 12:07:38;;;;;;;14.70;10.98;;;23.00;99.90;;;;;;4889681;29;20032;-68
2023/09/15 12:10:05;;;;;;;18.05;10.48;;;23.00;99.90;;;;;;4905305;29;20044;-68
2023/09/15 12:12:37;;;;;;;11.07;9.48;;;23.00;99.90;;;;;;4894213;29;20045;-68
2023/09/15 12:15:09;;;;;;;12.82;10.30;;;23.00;99.90;;;;;;4892088;29;20517;-68
2023/09/15 12:17:43;;;;;;;11.27;10.02;;;22.90;99.90;;;;;;4892805;29;20049;-68
2023/09/15 12:20:11;;;;;;;10.93;9.30;;;22.80;99.90;;;;;;4901012;29;20055;-68
2023/09/15 12:22:40;;;;;;;11.25;9.43;;;22.80;99.90;;;;;;4889525;29;20210;-68
2023/09/15 12:25:15;;;;;;;14.90;9.35;;;22.90;99.90;;;;;;4891104;29;20533;-68
2023/09/15 12:27:42;;;;;;;12.05;10.05;;;22.80;99.90;;;;;;4890068;29;20049;-68
2023/09/15 12:30:15;;;;;;;11.30;10.07;;;22.70;99.90;;;;;;4891472;29;20123;-68
2023/09/15 12:32:45;;;;;;;12.05;9.98;;;22.70;99.90;;;;;;4886787;29;20332;-68
2023/09/15 12:35:17;;;;;;;10.48;9.38;;;22.70;99.90;;;;;;4885240;29;20168;-68
2023/09/15 12:37:46;;;;;;;13.15;10.10;;;22.80;99.90;;;;;;4886995;29;20144;-68
2023/09/15 12:40:18;;;;;;;17.70;12.07;;;23.00;99.90;;;;;;4893594;29;20128;-68
2023/09/15 12:42:45;;;;;;;11.27;9.77;;;23.10;99.90;;;;;;4903192;29;20051;-68
2023/09/15 12:45:17;;;;;;;13.38;10.75;;;23.20;99.90;;;;;;4891086;29;20509;-68
2023/09/15 12:47:44;;;;;;;13.82;10.32;;;23.30;99.90;;;;;;4889766;29;20072;-68
2023/09/15 12:50:16;;;;;;;11.57;9.70;;;23.40;99.90;;;;;;4880469;29;20513;-68
2023/09/15 12:52:43;;;;;;;11.32;9.75;;;23.60;99.90;;;;;;4891791;29;20072;-68
2023/09/15 12:55:11;;;;;;;13.38;10.30;;;23.60;99.90;;;;;;4889135;29;20041;-68